Tres Coracoes, Brazil
Current Conditions -  °F | °C
As of 6:00 AM on Saturday 25 Oct 2014 (Local Time) from SBGW Reporting Station
Clear Clear  
Wind Chill: 66°   Ceiling: Unl
Heat Index: 66°   Visibility: 5mi
Dew Point: 61°   Wind: 2mph
Humidity: 83%   Direction: 250°WSW
Pressure: 29.97"   Gusts: NA
Location:  21.69°S, 45.26°W
Report Text: SBGW 250800Z 25002KT 8000 NSC 19/16 Q1015
Loading
Personal Weather Stations






























Interactive Weather Map
Tropical Storm Tracking
New forecast layout! Learn more

10-Day Weather Forecast

Advertisements
Track Severe Weather on mobile